Time;durP1;ratioP1;P1;durP2;ratioP2;P2;SDS_P1;SDS_P2;PMS_P1;PMS_P2;Temp;Humidity;BMP_temperature;BMP_pressure;BME280_temperature;BME280_humidity;BME280_pressure;Samples;Min_cycle;Max_cycle;Signal;HPM_P1;HPM_P2
2021/09/14 00:01:58;;;;;;;6.50;4.00;;;12.20;99.90;;;;;;5064065;28;20055;-45
2021/09/14 00:04:27;;;;;;;7.05;3.80;;;12.20;99.90;;;;;;5061230;28;20076;-45
2021/09/14 00:06:53;;;;;;;6.30;3.90;;;12.20;99.90;;;;;;5059278;28;20105;-45
2021/09/14 00:09:19;;;;;;;9.70;3.88;;;12.10;99.90;;;;;;5061219;28;20052;-46
2021/09/14 00:11:45;;;;;;;6.65;4.07;;;12.10;99.90;;;;;;5060923;28;20049;-45
2021/09/14 00:14:20;;;;;;;7.72;4.30;;;12.10;99.90;;;;;;5059836;28;20523;-47
2021/09/14 00:16:46;;;;;;;7.38;4.13;;;12.10;99.90;;;;;;5060474;28;20776;-46
2021/09/14 00:19:12;;;;;;;7.40;4.45;;;12.00;99.90;;;;;;5065839;28;20052;-45
2021/09/14 00:21:41;;;;;;;6.30;3.63;;;12.00;99.90;;;;;;5063019;28;20052;-47
2021/09/14 00:24:07;;;;;;;6.45;3.85;;;12.00;99.90;;;;;;5060322;28;20066;-45
2021/09/14 00:26:33;;;;;;;8.32;4.00;;;12.00;99.90;;;;;;5062061;28;20123;-45
2021/09/14 00:29:06;;;;;;;8.57;4.93;;;12.00;99.90;;;;;;5065527;28;20053;-47
2021/09/14 00:31:33;;;;;;;5.78;3.85;;;11.90;99.90;;;;;;5059040;28;20055;-46
2021/09/14 00:34:02;;;;;;;7.70;4.57;;;11.90;99.90;;;;;;5061144;28;20053;-45
2021/09/14 00:36:28;;;;;;;6.25;3.92;;;11.90;99.90;;;;;;5063705;28;20091;-46
2021/09/14 00:38:54;;;;;;;6.88;3.92;;;11.90;99.90;;;;;;5067502;28;20086;-46
2021/09/14 00:41:20;;;;;;;6.35;3.90;;;11.90;99.90;;;;;;5058221;28;20226;-46
2021/09/14 00:43:58;;;;;;;9.48;4.00;;;11.90;99.90;;;;;;5065176;28;20185;-46
2021/09/14 00:46:24;;;;;;;7.53;4.38;;;11.80;99.90;;;;;;5095232;27;20799;-46
2021/09/14 00:48:50;;;;;;;7.45;4.50;;;11.80;99.90;;;;;;5065933;28;20155;-46
2021/09/14 00:51:20;;;;;;;6.75;4.30;;;11.80;99.90;;;;;;5058823;28;20056;-46
2021/09/14 00:53:47;;;;;;;7.10;4.13;;;11.80;99.90;;;;;;5061747;28;20068;-46
2021/09/14 00:56:18;;;;;;;8.32;4.60;;;11.80;99.90;;;;;;5061813;28;20513;-46
2021/09/14 00:58:45;;;;;;;7.43;4.35;;;11.80;99.90;;;;;;5060199;28;20057;-48
2021/09/14 01:01:12;;;;;;;8.30;4.18;;;11.70;99.90;;;;;;5064037;28;20057;-46
2021/09/14 01:03:42;;;;;;;6.63;4.28;;;11.70;99.90;;;;;;5088541;27;20052;-46
2021/09/14 01:06:08;;;;;;;8.68;5.03;;;11.70;99.90;;;;;;5057917;28;20048;-46
2021/09/14 01:08:37;;;;;;;7.85;4.35;;;11.70;99.90;;;;;;5061579;28;20044;-47
2021/09/14 01:11:07;;;;;;;6.65;4.07;;;11.70;99.90;;;;;;5063334;28;20048;-47
2021/09/14 01:13:33;;;;;;;8.70;4.43;;;11.60;99.90;;;;;;5065513;28;20060;-47
2021/09/14 01:16:12;;;;;;;8.20;4.95;;;11.60;99.90;;;;;;5062769;28;20896;-46
2021/09/14 01:18:40;;;;;;;8.50;5.03;;;11.60;99.90;;;;;;5061571;28;20095;-47
2021/09/14 01:21:07;;;;;;;7.35;4.78;;;11.60;99.90;;;;;;5068716;28;20570;-48
2021/09/14 01:23:36;;;;;;;6.72;5.07;;;11.60;99.90;;;;;;5059715;28;20079;-47
2021/09/14 01:26:03;;;;;;;6.50;4.28;;;11.60;99.90;;;;;;5064880;28;20052;-47
2021/09/14 01:28:29;;;;;;;9.13;5.05;;;11.60;99.90;;;;;;5066469;28;20113;-46
2021/09/14 01:30:58;;;;;;;10.30;5.15;;;11.50;99.90;;;;;;5062586;28;20060;-46
2021/09/14 01:33:26;;;;;;;8.00;5.75;;;11.60;99.90;;;;;;5064813;28;20053;-47
2021/09/14 01:35:55;;;;;;;7.40;5.10;;;11.50;99.90;;;;;;5061245;28;20390;-46
2021/09/14 01:38:22;;;;;;;7.63;5.22;;;11.50;99.90;;;;;;5049095;28;20063;-47
2021/09/14 01:40:53;;;;;;;8.05;5.65;;;11.50;99.90;;;;;;5057251;28;20066;-46
2021/09/14 01:43:21;;;;;;;9.18;5.72;;;11.50;99.90;;;;;;5063408;28;20505;-47
2021/09/14 01:45:56;;;;;;;8.93;5.20;;;11.50;99.90;;;;;;5058162;28;20647;-48
2021/09/14 01:48:27;;;;;;;8.40;5.75;;;11.50;99.90;;;;;;5078204;28;20045;-47
2021/09/14 01:50:53;;;;;;;9.50;6.13;;;11.50;99.90;;;;;;5064941;28;20049;-47
2021/09/14 01:53:25;;;;;;;10.00;6.15;;;11.50;99.90;;;;;;5045351;28;20568;-48
2021/09/14 01:56:03;;;;;;;8.82;5.88;;;11.50;99.90;;;;;;5061202;28;20117;-49
2021/09/14 01:58:39;;;;;;;8.95;5.93;;;11.40;99.90;;;;;;5064307;28;20059;-46
2021/09/14 02:01:14;;;;;;;12.65;6.68;;;11.40;99.90;;;;;;5065080;28;20060;-48
2021/09/14 02:03:57;;;;;;;9.02;6.43;;;11.40;99.90;;;;;;5058881;28;20051;-48
2021/09/14 02:06:48;;;;;;;9.75;6.45;;;11.40;99.90;;;;;;5057167;28;20047;-47
2021/09/14 02:59:31;;;;;;;10.93;8.40;;;11.20;99.90;;;;;;5093688;28;20048;-46
2021/09/14 03:01:59;;;;;;;12.73;9.13;;;11.20;99.90;;;;;;5041855;28;20127;-45
2021/09/14 03:04:25;;;;;;;13.18;8.88;;;11.20;99.90;;;;;;5061319;28;20048;-49
2021/09/14 03:06:54;;;;;;;14.30;9.35;;;11.20;99.90;;;;;;5062265;28;20061;-48
2021/09/14 03:09:50;;;;;;;13.80;8.70;;;11.20;99.90;;;;;;5055686;28;20545;-46
2021/09/14 03:12:19;;;;;;;13.35;9.13;;;11.20;99.90;;;;;;5064729;28;20056;-47
2021/09/14 03:14:50;;;;;;;16.93;10.30;;;11.10;99.90;;;;;;5061953;28;20611;-49
2021/09/14 03:17:19;;;;;;;11.95;9.02;;;11.20;99.90;;;;;;5061096;28;20079;-48
2021/09/14 03:19:47;;;;;;;13.83;9.87;;;11.20;99.90;;;;;;5062182;28;20403;-47
2021/09/14 03:22:14;;;;;;;13.68;9.38;;;11.20;99.90;;;;;;5058214;28;20098;-46
2021/09/14 03:24:41;;;;;;;15.57;9.52;;;11.20;99.90;;;;;;5060717;28;20055;-47
2021/09/14 03:27:07;;;;;;;13.80;10.38;;;11.20;99.90;;;;;;5058361;28;20439;-46
2021/09/14 03:29:34;;;;;;;14.95;9.65;;;11.20;99.90;;;;;;5056815;28;20059;-47
2021/09/14 03:32:00;;;;;;;12.48;9.77;;;11.20;99.90;;;;;;5061209;28;20053;-45
2021/09/14 03:34:26;;;;;;;12.65;9.95;;;11.20;99.90;;;;;;5057880;28;20064;-47
2021/09/14 03:36:55;;;;;;;14.95;10.65;;;11.20;99.90;;;;;;5061967;28;20059;-47
2021/09/14 03:39:21;;;;;;;14.23;11.32;;;11.10;99.90;;;;;;5074108;28;20571;-46
2021/09/14 03:41:51;;;;;;;16.23;10.40;;;11.10;99.90;;;;;;5045872;28;20057;-47
2021/09/14 03:44:17;;;;;;;14.88;11.13;;;11.20;99.90;;;;;;5058985;28;20051;-49
2021/09/14 03:46:47;;;;;;;16.42;12.10;;;11.10;99.90;;;;;;5055228;28;21046;-48
2021/09/14 03:49:14;;;;;;;16.63;11.20;;;11.10;99.90;;;;;;5059752;28;20056;-48
2021/09/14 03:51:47;;;;;;;16.77;12.10;;;11.10;99.90;;;;;;5061688;28;20186;-45
2021/09/14 03:54:16;;;;;;;14.23;11.88;;;11.10;99.90;;;;;;5061130;28;20048;-46
2021/09/14 03:56:45;;;;;;;16.63;11.55;;;11.10;99.90;;;;;;5060367;28;20539;-47
2021/09/14 03:59:12;;;;;;;16.08;11.93;;;11.10;99.90;;;;;;5065347;28;20140;-52
2021/09/14 04:01:48;;;;;;;16.42;11.98;;;11.10;99.90;;;;;;5063172;28;20053;-49
2021/09/14 04:07:09;;;;;;;19.73;12.15;;;11.10;99.90;;;;;;5063620;28;20048;-46
2021/09/14 04:09:41;;;;;;;16.25;11.25;;;11.10;99.90;;;;;;5069651;28;20055;-47
2021/09/14 04:12:13;;;;;;;13.30;11.30;;;11.10;99.90;;;;;;5063719;28;20048;-47
2021/09/14 04:14:42;;;;;;;17.80;12.23;;;11.10;99.90;;;;;;5063919;28;20045;-49
2021/09/14 04:17:10;;;;;;;15.93;12.48;;;11.10;99.90;;;;;;5058726;28;20135;-47
2021/09/14 04:19:37;;;;;;;17.02;12.10;;;11.10;99.90;;;;;;5060002;28;20080;-50
2021/09/14 04:22:04;;;;;;;17.63;12.25;;;11.10;99.90;;;;;;5062764;28;20520;-47
2021/09/14 04:24:41;;;;;;;15.55;11.20;;;11.30;99.90;;;;;;5065271;28;20995;-47
2021/09/14 04:27:11;;;;;;;16.95;12.07;;;11.20;99.90;;;;;;5058583;28;20049;-47
2021/09/14 04:29:39;;;;;;;15.23;10.93;;;11.20;99.90;;;;;;5061413;28;20044;-46
2021/09/14 04:32:05;;;;;;;14.40;11.52;;;11.20;99.90;;;;;;5065798;28;20049;-48
2021/09/14 04:34:40;;;;;;;20.10;12.32;;;11.30;99.90;;;;;;5067707;28;20135;-48
2021/09/14 04:37:09;;;;;;;15.88;11.88;;;11.30;99.90;;;;;;5067499;28;20428;-46
2021/09/14 04:39:36;;;;;;;16.30;11.88;;;11.30;99.90;;;;;;5055807;28;20045;-50
2021/09/14 04:42:04;;;;;;;16.33;11.68;;;11.40;99.90;;;;;;5066851;28;20052;-50
2021/09/14 04:44:34;;;;;;;18.55;12.77;;;11.50;99.90;;;;;;5068547;28;20053;-46
2021/09/14 04:47:06;;;;;;;19.65;12.82;;;11.40;99.90;;;;;;5081391;28;20060;-46
2021/09/14 04:49:37;;;;;;;15.73;11.63;;;11.50;99.90;;;;;;5051101;28;20124;-48
2021/09/14 04:52:06;;;;;;;18.10;11.80;;;11.50;99.90;;;;;;5057892;28;20048;-47
2021/09/14 04:54:34;;;;;;;18.55;12.93;;;11.60;99.90;;;;;;5060966;28;20083;-48
2021/09/14 04:57:02;;;;;;;16.50;12.27;;;11.50;99.90;;;;;;5067393;28;20052;-49
2021/09/14 04:59:31;;;;;;;19.25;12.32;;;11.60;99.90;;;;;;5066608;28;20056;-46
2021/09/14 05:01:58;;;;;;;16.50;11.95;;;11.50;99.90;;;;;;5067649;28;20129;-47
2021/09/14 05:04:29;;;;;;;14.77;11.55;;;11.50;99.90;;;;;;5057058;28;20391;-46
2021/09/14 05:06:56;;;;;;;17.10;13.40;;;11.50;99.90;;;;;;5045173;28;20049;-50
2021/09/14 05:09:25;;;;;;;16.25;12.68;;;11.50;99.90;;;;;;5044823;28;20056;-47
2021/09/14 05:11:57;;;;;;;;;;;11.50;99.90;;;;;;5050268;28;20040;-48
2021/09/14 05:14:28;;;;;;;16.42;13.00;;;11.50;99.90;;;;;;5053670;28;19939;-47
2021/09/14 05:17:14;;;;;;;17.08;12.25;;;11.40;99.90;;;;;;5080001;28;20454;-48
2021/09/14 05:20:00;;;;;;;15.23;12.80;;;11.50;99.90;;;;;;5053464;28;20040;-47
2021/09/14 05:22:32;;;;;;;19.35;13.77;;;11.60;99.90;;;;;;5048591;28;20057;-50
2021/09/14 05:25:00;;;;;;;18.40;12.70;;;11.60;99.90;;;;;;5068439;28;20087;-49
2021/09/14 05:27:29;;;;;;;26.00;13.43;;;11.60;99.90;;;;;;5063779;28;20508;-47
2021/09/14 05:29:58;;;;;;;19.15;14.30;;;11.60;99.90;;;;;;5064376;28;20055;-49
2021/09/14 05:32:29;;;;;;;15.57;12.20;;;11.60;99.90;;;;;;5062377;28;20058;-49
2021/09/14 05:34:58;;;;;;;18.90;13.30;;;11.70;99.90;;;;;;5064935;28;20056;-48
2021/09/14 05:37:24;;;;;;;16.80;12.07;;;11.60;99.90;;;;;;5064205;28;20045;-48
2021/09/14 05:39:52;;;;;;;21.98;13.88;;;11.70;99.90;;;;;;5063954;28;20160;-49
2021/09/14 05:42:21;;;;;;;19.25;13.50;;;11.70;99.90;;;;;;5062858;28;20052;-48
2021/09/14 05:44:55;;;;;;;21.63;13.23;;;11.70;99.90;;;;;;5061695;28;20056;-47
2021/09/14 05:47:26;;;;;;;21.10;13.50;;;11.90;99.90;;;;;;5061494;28;20078;-49
2021/09/14 05:49:58;;;;;;;18.30;11.93;;;11.90;99.90;;;;;;5067315;28;20060;-47
2021/09/14 05:52:27;;;;;;;17.50;13.73;;;11.90;99.90;;;;;;5063806;28;20056;-46
2021/09/14 05:54:53;;;;;;;15.52;12.85;;;12.00;99.90;;;;;;5061070;28;20205;-47
2021/09/14 05:57:20;;;;;;;23.10;14.18;;;12.10;99.90;;;;;;5063295;28;20048;-47
2021/09/14 05:59:50;;;;;;;14.02;11.07;;;12.00;99.90;;;;;;5045476;28;20049;-48
2021/09/14 06:02:19;;;;;;;17.50;13.40;;;12.10;99.90;;;;;;5080455;28;20106;-47
2021/09/14 06:04:53;;;;;;;17.50;13.33;;;12.20;99.90;;;;;;5063565;28;20072;-47
2021/09/14 06:07:22;;;;;;;21.27;14.02;;;12.20;99.90;;;;;;5065408;28;20044;-45
2021/09/14 06:09:48;;;;;;;79.22;64.15;;;12.20;99.90;;;;;;5067257;28;20121;-46
2021/09/14 06:12:17;;;;;;;60.35;50.42;;;12.30;99.90;;;;;;5062254;28;20196;-47
2021/09/14 06:14:44;;;;;;;36.67;29.08;;;12.40;99.90;;;;;;5053360;28;20056;-46
2021/09/14 06:17:13;;;;;;;27.85;20.75;;;12.40;99.90;;;;;;5052887;28;20087;-49
2021/09/14 06:19:42;;;;;;;18.52;15.02;;;12.50;99.90;;;;;;5067060;28;20067;-48
2021/09/14 06:22:11;;;;;;;23.40;19.48;;;12.50;99.90;;;;;;5066533;28;20087;-46
2021/09/14 06:24:40;;;;;;;34.20;26.83;;;12.60;99.90;;;;;;5064407;28;20110;-46
2021/09/14 06:27:06;;;;;;;22.60;15.32;;;12.70;99.90;;;;;;5066036;28;20580;-47
2021/09/14 06:29:32;;;;;;;25.17;19.52;;;12.80;99.90;;;;;;5063054;28;20381;-48
2021/09/14 06:31:59;;;;;;;38.63;33.78;;;13.00;99.90;;;;;;5063265;28;20091;-51
2021/09/14 06:34:47;;;;;;;82.75;73.80;;;13.10;99.90;;;;;;5057928;28;20089;-48
2021/09/14 06:37:14;;;;;;;44.45;39.67;;;13.40;99.90;;;;;;5060675;28;20053;-48
2021/09/14 06:39:44;;;;;;;24.27;21.30;;;13.60;99.90;;;;;;5065918;28;20064;-49
2021/09/14 06:42:10;;;;;;;29.33;24.83;;;13.70;99.90;;;;;;5065726;28;20744;-49
2021/09/14 06:44:41;;;;;;;37.25;33.17;;;13.90;99.90;;;;;;5063803;28;20052;-47
2021/09/14 06:47:12;;;;;;;19.20;14.32;;;14.20;99.90;;;;;;5065872;28;20071;-48
2021/09/14 06:49:38;;;;;;;13.73;10.75;;;14.30;99.90;;;;;;5067322;28;20057;-49
2021/09/14 06:52:07;;;;;;;17.55;13.73;;;14.70;99.90;;;;;;5067767;28;20226;-51
2021/09/14 06:54:34;;;;;;;19.65;17.42;;;14.90;99.90;;;;;;5067941;28;20064;-52
2021/09/14 06:57:00;;;;;;;18.65;16.60;;;15.20;99.90;;;;;;5067409;28;20063;-50
2021/09/14 06:59:29;;;;;;;18.83;14.52;;;15.50;99.90;;;;;;5065764;28;20052;-47
2021/09/14 07:01:55;;;;;;;14.10;12.48;;;15.80;99.90;;;;;;5066705;28;20060;-51
2021/09/14 07:04:22;;;;;;;14.82;10.40;;;16.10;99.90;;;;;;5067605;28;20465;-47
2021/09/14 07:06:50;;;;;;;14.90;11.93;;;16.40;99.90;;;;;;5064778;28;20075;-47
2021/09/14 07:09:19;;;;;;;38.53;34.60;;;16.60;99.90;;;;;;5072169;28;20079;-46
2021/09/14 07:11:50;;;;;;;39.30;35.15;;;17.00;99.90;;;;;;5071405;28;20138;-46
2021/09/14 07:14:19;;;;;;;;;;;17.30;99.90;;;;;;5064931;28;20063;-45
2021/09/14 07:16:47;;;;;;;15.95;12.88;;;17.50;99.90;;;;;;5057295;28;19963;-46
2021/09/14 07:19:14;;;;;;;33.58;30.23;;;17.90;99.90;;;;;;5062980;28;20060;-45
2021/09/14 07:21:45;;;;;;;26.38;23.75;;;18.30;99.90;;;;;;5060002;28;20143;-45
2021/09/14 07:24:15;;;;;;;17.10;11.52;;;18.60;99.90;;;;;;5062663;28;20061;-47
2021/09/14 07:26:43;;;;;;;13.23;11.27;;;19.00;99.90;;;;;;5053054;28;20103;-49
2021/09/14 07:29:12;;;;;;;14.57;12.65;;;19.30;99.90;;;;;;5062372;28;20049;-46
2021/09/14 07:31:41;;;;;;;17.90;16.00;;;19.60;99.90;;;;;;5064211;28;20076;-47
2021/09/14 07:34:08;;;;;;;14.82;11.40;;;19.80;99.90;;;;;;5057784;28;20057;-45
2021/09/14 07:36:37;;;;;;;10.75;9.70;;;20.20;99.90;;;;;;5062768;28;20049;-48
2021/09/14 07:39:06;;;;;;;11.07;9.95;;;20.20;99.90;;;;;;5061305;28;20045;-48
2021/09/14 07:41:33;;;;;;;12.13;8.98;;;20.10;99.90;;;;;;5057169;28;20045;-46
2021/09/14 07:44:04;;;;;;;12.70;9.82;;;20.60;99.90;;;;;;5051095;28;20064;-48
2021/09/14 07:46:32;;;;;;;30.85;27.60;;;20.90;99.90;;;;;;5056309;28;20095;-47
2021/09/14 07:49:01;;;;;;;21.85;19.58;;;21.10;99.90;;;;;;5056659;28;20055;-48
2021/09/14 07:51:33;;;;;;;36.72;33.20;;;21.30;99.90;;;;;;5065038;28;20053;-51
2021/09/14 07:54:02;;;;;;;14.02;11.82;;;21.40;99.90;;;;;;5053746;28;20041;-48
2021/09/14 07:56:31;;;;;;;16.55;13.98;;;21.90;99.90;;;;;;5063656;28;20041;-47
2021/09/14 07:58:58;;;;;;;11.90;10.70;;;21.90;99.90;;;;;;5066381;28;20475;-46
2021/09/14 08:01:29;;;;;;;10.57;9.43;;;22.10;99.90;;;;;;5055846;28;20055;-49
2021/09/14 08:04:01;;;;;;;12.82;11.13;;;22.00;99.90;;;;;;5054878;28;20115;-49
2021/09/14 08:06:30;;;;;;;10.15;8.50;;;22.20;99.90;;;;;;5054456;28;20109;-49
2021/09/14 08:09:01;;;;;;;11.02;9.00;;;22.10;99.90;;;;;;5050713;28;20056;-49
2021/09/14 08:11:32;;;;;;;10.60;7.82;;;22.40;99.90;;;;;;5059096;28;20053;-50
2021/09/14 08:14:01;;;;;;;9.40;7.53;;;22.60;99.90;;;;;;5054410;28;20572;-48
2021/09/14 08:16:27;;;;;;;28.80;25.92;;;22.80;99.90;;;;;;5054318;28;20497;-49
2021/09/14 08:18:57;;;;;;;16.60;14.93;;;22.70;99.90;;;;;;5093340;28;20759;-48
2021/09/14 08:21:23;;;;;;;16.85;15.00;;;22.30;99.90;;;;;;5049500;28;20049;-51
2021/09/14 08:23:52;;;;;;;15.40;13.65;;;22.40;99.90;;;;;;5065074;28;20056;-50
2021/09/14 08:26:21;;;;;;;33.47;30.20;;;22.50;99.90;;;;;;5067335;28;20091;-52
2021/09/14 08:28:49;;;;;;;8.55;7.05;;;22.70;99.90;;;;;;5066005;28;20079;-51
2021/09/14 08:31:24;;;;;;;15.15;13.60;;;22.80;99.90;;;;;;5061486;28;20122;-48
2021/09/14 08:33:53;;;;;;;16.60;10.35;;;22.90;99.90;;;;;;5058845;28;20175;-49
2021/09/14 08:36:25;;;;;;;12.48;11.13;;;23.20;99.80;;;;;;5064579;28;20055;-49
2021/09/14 08:38:55;;;;;;;17.15;15.52;;;23.60;97.80;;;;;;5064144;28;20052;-49
2021/09/14 08:41:22;;;;;;;20.00;18.08;;;23.80;95.10;;;;;;5067170;28;20068;-50
2021/09/14 08:44:03;;;;;;;13.02;10.27;;;23.70;94.10;;;;;;5061307;28;20071;-52
2021/09/14 08:46:35;;;;;;;11.07;9.60;;;23.60;95.30;;;;;;5067499;28;20189;-49
2021/09/14 08:49:06;;;;;;;15.02;12.65;;;23.70;96.20;;;;;;5069985;28;20052;-49
2021/09/14 08:51:35;;;;;;;17.65;15.93;;;24.00;93.70;;;;;;5069958;28;20163;-52
2021/09/14 08:54:07;;;;;;;11.68;10.35;;;24.00;94.70;;;;;;5070073;28;20512;-51
2021/09/14 08:56:36;;;;;;;9.18;7.15;;;24.20;93.20;;;;;;5070277;28;20056;-50
2021/09/14 08:59:07;;;;;;;13.20;10.63;;;24.40;88.80;;;;;;5069373;28;20053;-54
2021/09/14 09:01:38;;;;;;;8.85;7.95;;;24.60;90.60;;;;;;5070220;28;20060;-51
2021/09/14 09:04:11;;;;;;;14.70;13.30;;;24.70;87.20;;;;;;5070274;28;20075;-51
2021/09/14 09:06:42;;;;;;;9.05;7.22;;;25.00;85.10;;;;;;5070657;28;20500;-53
2021/09/14 09:09:16;;;;;;;12.85;11.52;;;24.50;85.00;;;;;;5070106;28;20501;-52
2021/09/14 09:12:03;;;;;;;10.15;9.05;;;24.50;82.90;;;;;;5070830;28;20784;-51
2021/09/14 09:14:43;;;;;;;8.27;7.28;;;24.40;83.60;;;;;;5070769;28;20721;-51
2021/09/14 09:17:15;;;;;;;10.43;8.15;;;24.10;81.80;;;;;;5069420;28;20052;-50
2021/09/14 09:19:55;;;;;;;17.52;15.70;;;24.00;85.70;;;;;;5062515;28;20049;-54
2021/09/14 09:22:25;;;;;;;17.05;15.07;;;23.60;88.50;;;;;;5066077;28;20055;-50
2021/09/14 09:24:57;;;;;;;23.23;20.90;;;23.70;90.50;;;;;;5070296;28;20572;-52
2021/09/14 09:27:27;;;;;;;11.40;8.85;;;23.60;92.60;;;;;;5070345;28;20056;-50
2021/09/14 09:30:06;;;;;;;10.80;8.93;;;23.40;91.70;;;;;;5069498;28;20508;-50
2021/09/14 09:32:46;;;;;;;11.93;10.70;;;23.40;92.60;;;;;;5068658;28;20055;-50
2021/09/14 09:35:23;;;;;;;10.50;8.07;;;23.40;94.50;;;;;;5070499;28;20059;-51
2021/09/14 09:37:58;;;;;;;11.07;9.95;;;23.10;94.80;;;;;;5070343;28;20674;-54
2021/09/14 09:40:28;;;;;;;12.10;8.68;;;23.00;97.60;;;;;;5070275;28;20453;-53
2021/09/14 09:42:59;;;;;;;9.50;8.00;;;23.00;97.90;;;;;;5070044;28;20056;-51
2021/09/14 09:45:28;;;;;;;9.68;7.97;;;22.90;97.90;;;;;;5069550;28;20048;-50
2021/09/14 09:47:57;;;;;;;59.78;54.10;;;22.70;99.20;;;;;;5070377;28;20428;-50
2021/09/14 09:50:36;;;;;;;9.70;8.50;;;22.60;99.40;;;;;;5069745;28;20082;-54
2021/09/14 09:53:06;;;;;;;14.10;12.32;;;22.50;99.90;;;;;;5069920;28;20055;-50
2021/09/14 09:55:42;;;;;;;10.40;8.88;;;22.30;99.90;;;;;;5069633;28;20125;-52
2021/09/14 09:58:16;;;;;;;9.70;8.70;;;22.60;99.90;;;;;;5068158;28;20052;-52
2021/09/14 10:01:12;;;;;;;12.68;10.60;;;22.80;99.90;;;;;;5069402;28;20101;-51
2021/09/14 10:04:00;;;;;;;10.63;8.27;;;23.40;99.90;;;;;;5068153;28;20504;-52
2021/09/14 10:06:35;;;;;;;8.07;6.60;;;24.40;96.40;;;;;;5069111;28;20048;-53
2021/09/14 10:09:07;;;;;;;18.95;17.08;;;25.10;92.80;;;;;;5063277;28;20045;-54
2021/09/14 10:11:36;;;;;;;12.25;10.90;;;25.80;90.70;;;;;;5065916;28;20049;-52
2021/09/14 10:14:09;;;;;;;10.75;9.32;;;26.50;85.70;;;;;;5061866;28;20052;-51
2021/09/14 10:16:45;;;;;;;11.10;9.45;;;26.90;74.70;;;;;;5059399;28;20056;-51
2021/09/14 10:19:19;;;;;;;10.93;9.00;;;27.30;70.40;;;;;;5061308;28;20193;-53
2021/09/14 10:22:08;;;;;;;12.05;10.80;;;27.60;67.70;;;;;;5055497;28;20049;-51
2021/09/14 10:24:35;;;;;;;8.48;7.47;;;27.70;62.80;;;;;;5067117;28;20055;-53
2021/09/14 10:27:22;;;;;;;8.52;7.55;;;27.40;63.10;;;;;;5065606;28;20052;-50
2021/09/14 10:30:00;;;;;;;10.55;7.53;;;27.60;64.70;;;;;;5061299;28;20052;-51
2021/09/14 10:32:40;;;;;;;7.90;7.13;;;28.10;63.40;;;;;;5050807;28;20703;-52
2021/09/14 10:35:10;;;;;;;10.93;9.52;;;27.60;62.10;;;;;;5067870;28;20091;-52
2021/09/14 10:37:42;;;;;;;7.50;6.53;;;27.90;62.00;;;;;;5050576;28;20053;-51
2021/09/14 10:40:19;;;;;;;8.77;6.88;;;27.80;60.40;;;;;;5068764;28;20056;-52
2021/09/14 10:42:48;;;;;;;10.48;7.20;;;28.60;59.40;;;;;;5057289;28;20052;-52
2021/09/14 10:45:20;;;;;;;9.27;8.38;;;28.60;59.10;;;;;;5066188;28;20453;-53
2021/09/14 10:47:50;;;;;;;8.40;7.03;;;28.90;58.60;;;;;;5062985;28;20049;-53
2021/09/14 10:50:29;;;;;;;9.45;7.20;;;29.00;57.00;;;;;;5063165;28;20065;-51
2021/09/14 10:53:00;;;;;;;8.27;6.18;;;29.00;56.00;;;;;;5067655;28;20048;-52
2021/09/14 10:55:27;;;;;;;;;;;29.20;57.50;;;;;;5069156;28;20056;-53
2021/09/14 10:58:05;;;;;;;8.98;7.85;;;29.30;55.70;;;;;;5065464;28;20376;-51
2021/09/14 11:00:36;;;;;;;8.60;7.47;;;28.90;56.80;;;;;;5058353;28;20065;-52
2021/09/14 11:03:08;;;;;;;8.15;7.35;;;29.30;55.30;;;;;;5068016;28;20080;-51
2021/09/14 11:05:40;;;;;;;16.25;14.68;;;28.70;54.80;;;;;;5068276;28;20048;-51
2021/09/14 11:08:11;;;;;;;8.75;7.88;;;28.50;55.90;;;;;;5059045;28;20068;-52
2021/09/14 11:10:46;;;;;;;10.80;9.70;;;28.30;56.20;;;;;;5055901;28;20506;-52
2021/09/14 11:13:26;;;;;;;10.35;9.38;;;28.70;55.40;;;;;;5059947;28;20111;-51
2021/09/14 11:16:14;;;;;;;6.05;5.45;;;28.80;56.50;;;;;;5055441;28;20052;-53
2021/09/14 11:19:01;;;;;;;7.57;6.33;;;29.40;54.40;;;;;;5065101;28;20083;-53
2021/09/14 11:21:31;;;;;;;9.40;7.82;;;29.40;54.20;;;;;;5066048;28;20416;-52
2021/09/14 11:23:59;;;;;;;7.22;5.03;;;29.60;53.50;;;;;;5067248;28;20083;-53
2021/09/14 11:26:33;;;;;;;6.60;5.35;;;29.80;54.20;;;;;;5067984;28;20139;-52
2021/09/14 11:29:06;;;;;;;8.85;6.18;;;29.90;54.40;;;;;;5062699;28;20055;-53
2021/09/14 11:31:38;;;;;;;5.70;4.15;;;30.40;53.40;;;;;;5067345;28;20053;-52
2021/09/14 11:34:15;;;;;;;11.50;6.90;;;30.50;53.80;;;;;;5060275;28;20057;-54
2021/09/14 11:36:49;;;;;;;8.32;5.45;;;30.70;52.80;;;;;;5046233;28;20057;-53
2021/09/14 11:39:23;;;;;;;6.78;5.45;;;30.60;50.90;;;;;;5048160;28;20053;-53
2021/09/14 11:42:01;;;;;;;7.10;6.15;;;30.50;50.40;;;;;;5047883;28;20053;-50
2021/09/14 11:44:29;;;;;;;6.85;5.00;;;30.40;50.40;;;;;;5057585;28;20053;-51
2021/09/14 11:47:09;;;;;;;5.43;4.60;;;30.50;51.00;;;;;;5067456;28;20552;-53
2021/09/14 11:49:40;;;;;;;6.82;6.13;;;31.00;51.00;;;;;;5065730;28;20417;-54
2021/09/14 11:52:06;;;;;;;6.68;5.13;;;30.60;50.50;;;;;;5066723;28;20092;-54
2021/09/14 11:54:46;;;;;;;7.05;5.45;;;31.00;51.00;;;;;;5066413;28;20087;-53
2021/09/14 11:57:20;;;;;;;6.13;4.70;;;30.50;49.50;;;;;;5066161;28;20076;-52
2021/09/14 11:59:52;;;;;;;6.70;5.18;;;30.40;50.30;;;;;;5066517;28;20052;-53
2021/09/14 12:02:25;;;;;;;6.15;5.28;;;30.50;49.00;;;;;;5066613;28;20052;-54
2021/09/14 12:05:06;;;;;;;6.32;5.20;;;30.20;49.10;;;;;;5066666;28;20063;-51
2021/09/14 12:07:37;;;;;;;7.43;5.72;;;30.20;49.00;;;;;;5067179;28;20565;-51
2021/09/14 12:10:08;;;;;;;10.50;6.70;;;30.00;50.20;;;;;;5062442;28;20063;-52
2021/09/14 12:12:39;;;;;;;6.13;5.53;;;30.20;49.00;;;;;;5065252;28;20516;-53
2021/09/14 12:15:13;;;;;;;7.47;5.18;;;29.50;49.60;;;;;;5065156;28;20453;-52
2021/09/14 12:17:42;;;;;;;6.82;4.93;;;30.00;50.10;;;;;;5059584;28;20049;-52
2021/09/14 12:20:12;;;;;;;6.68;4.88;;;30.20;51.30;;;;;;5065451;28;20048;-53
2021/09/14 12:22:41;;;;;;;6.47;5.88;;;30.50;50.60;;;;;;5068487;28;20057;-50
2021/09/14 12:25:10;;;;;;;32.75;29.55;;;30.00;49.80;;;;;;5070256;28;20059;-55
2021/09/14 12:27:39;;;;;;;12.63;11.30;;;30.40;49.90;;;;;;5065932;28;20152;-55
2021/09/14 12:30:06;;;;;;;17.70;15.93;;;30.40;49.80;;;;;;5066946;28;20128;-53
2021/09/14 12:32:37;;;;;;;7.45;5.82;;;30.40;49.20;;;;;;5066528;28;20060;-54
2021/09/14 12:35:07;;;;;;;9.30;6.55;;;30.90;49.10;;;;;;5068483;28;20129;-52
2021/09/14 12:37:40;;;;;;;106.50;97.03;;;31.40;49.70;;;;;;5070515;28;20087;-55
2021/09/14 12:40:07;;;;;;;10.20;8.93;;;31.30;47.40;;;;;;5068868;28;20305;-54
2021/09/14 12:42:41;;;;;;;9.18;5.40;;;31.00;47.80;;;;;;5065986;28;20101;-52
2021/09/14 12:45:13;;;;;;;6.68;5.70;;;31.10;46.70;;;;;;5062071;28;20807;-53
2021/09/14 12:47:42;;;;;;;8.10;4.80;;;31.40;46.30;;;;;;5077596;28;20390;-53
2021/09/14 12:50:18;;;;;;;6.95;5.00;;;30.70;46.90;;;;;;5062467;28;20060;-52
2021/09/14 12:52:52;;;;;;;6.32;5.70;;;31.30;47.90;;;;;;5055480;28;20052;-54
2021/09/14 12:55:25;;;;;;;6.72;5.53;;;30.80;46.60;;;;;;5069143;28;20569;-53
2021/09/14 12:57:54;;;;;;;6.50;5.88;;;31.10;46.00;;;;;;5070229;28;22279;-52
2021/09/14 13:00:29;;;;;;;5.97;5.30;;;30.60;46.90;;;;;;5070960;28;20048;-53
2021/09/14 13:03:00;;;;;;;5.75;4.95;;;31.00;47.40;;;;;;5067341;28;20056;-52
2021/09/14 13:05:31;;;;;;;7.70;5.32;;;31.30;47.00;;;;;;5050687;28;20056;-50
2021/09/14 13:08:02;;;;;;;6.90;5.10;;;31.20;46.90;;;;;;5070763;28;20040;-52
2021/09/14 13:10:33;;;;;;;7.78;5.35;;;31.60;45.80;;;;;;5076641;28;20048;-54
2021/09/14 13:16:12;;;;;;;5.88;4.70;;;31.20;46.10;;;;;;5059257;28;20519;-51
2021/09/14 13:18:47;;;;;;;8.00;5.88;;;31.40;46.50;;;;;;5069922;28;20048;-53
2021/09/14 13:21:20;;;;;;;5.60;5.05;;;31.50;45.40;;;;;;5066520;28;20098;-54
2021/09/14 13:23:49;;;;;;;8.88;5.38;;;31.10;46.30;;;;;;5063644;28;20467;-50
2021/09/14 13:26:17;;;;;;;6.47;5.18;;;31.20;45.60;;;;;;5069241;28;20063;-55
2021/09/14 13:28:43;;;;;;;6.97;5.68;;;30.80;45.90;;;;;;5062878;28;20044;-56
2021/09/14 13:31:15;;;;;;;7.80;7.00;;;31.20;45.60;;;;;;5068391;28;20063;-57
2021/09/14 13:33:42;;;;;;;9.30;7.53;;;31.50;45.70;;;;;;5067927;28;20564;-55
2021/09/14 13:36:14;;;;;;;7.35;5.97;;;31.50;44.40;;;;;;5062884;28;20094;-56
2021/09/14 13:38:40;;;;;;;9.07;8.18;;;31.50;43.50;;;;;;5069341;28;20053;-56
2021/09/14 13:41:11;;;;;;;6.47;4.75;;;31.30;43.70;;;;;;5068993;28;20068;-55
2021/09/14 13:43:48;;;;;;;9.05;8.25;;;31.50;43.80;;;;;;5060695;28;20159;-55
2021/09/14 13:46:14;;;;;;;33.75;30.73;;;32.10;43.60;;;;;;5054078;28;20107;-53
2021/09/14 13:48:54;;;;;;;18.30;16.70;;;32.30;43.50;;;;;;5049206;28;20083;-55
2021/09/14 13:51:26;;;;;;;13.90;12.63;;;32.20;43.60;;;;;;5049185;28;20060;-55
2021/09/14 13:53:54;;;;;;;9.20;8.18;;;31.50;43.00;;;;;;5063363;28;20060;-55